Time;durP1;ratioP1;P1;durP2;ratioP2;P2;SDS_P1;SDS_P2;PMS_P1;PMS_P2;Temp;Humidity;BMP_temperature;BMP_pressure;BME280_temperature;BME280_humidity;BME280_pressure;Samples;Min_cycle;Max_cycle;Signal;HPM_P1;HPM_P2
2022/07/01 00:02:03;;;;;;;1.67;0.45;;;18.10;99.90;;;;;;5008374;28;20054;-83
2022/07/01 00:04:31;;;;;;;4.18;0.30;;;18.10;99.90;;;;;;5009358;28;20665;-83
2022/07/01 00:06:57;;;;;;;1.15;0.40;;;18.20;99.90;;;;;;5008309;28;20571;-83
2022/07/01 00:09:25;;;;;;;0.40;0.30;;;18.20;99.90;;;;;;5009993;28;20050;-82
2022/07/01 00:11:52;;;;;;;0.52;0.40;;;18.30;99.90;;;;;;5005155;28;20078;-83
2022/07/01 00:14:19;;;;;;;0.68;0.40;;;18.20;99.90;;;;;;5004504;28;20074;-83
2022/07/01 00:16:45;;;;;;;1.00;0.30;;;18.30;99.90;;;;;;5004752;28;20070;-84
2022/07/01 00:19:12;;;;;;;1.75;0.40;;;18.30;99.90;;;;;;5004644;28;20046;-84
2022/07/01 00:21:39;;;;;;;1.55;0.30;;;18.30;99.90;;;;;;5004248;28;20088;-83
2022/07/01 00:24:06;;;;;;;1.27;0.50;;;18.30;99.90;;;;;;5011088;28;20057;-83
2022/07/01 00:26:33;;;;;;;0.80;0.40;;;18.20;99.90;;;;;;5007707;28;20050;-84
2022/07/01 00:29:00;;;;;;;0.25;0.25;;;18.30;99.90;;;;;;5011325;28;20054;-83
2022/07/01 00:31:26;;;;;;;1.38;0.30;;;18.30;99.90;;;;;;5010545;28;20105;-83
2022/07/01 00:33:53;;;;;;;0.50;0.30;;;18.30;99.90;;;;;;5007463;28;20109;-83
2022/07/01 00:36:20;;;;;;;0.45;0.45;;;18.20;99.90;;;;;;5010547;28;20058;-83
2022/07/01 00:38:46;;;;;;;0.80;0.40;;;18.20;99.90;;;;;;5006894;28;20629;-83
2022/07/01 00:41:13;;;;;;;0.40;0.40;;;18.20;99.90;;;;;;5004866;28;20085;-83
2022/07/01 00:43:40;;;;;;;1.45;0.30;;;18.10;99.90;;;;;;5005407;28;20081;-84
2022/07/01 00:46:24;;;;;;;0.30;0.30;;;18.10;99.90;;;;;;5003030;28;20060;-84
2022/07/01 00:48:57;;;;;;;2.28;0.30;;;18.10;99.90;;;;;;5002559;28;20061;-84
2022/07/01 00:51:24;;;;;;;2.15;0.40;;;18.10;99.90;;;;;;5001257;28;20417;-82
2022/07/01 00:53:52;;;;;;;0.55;0.32;;;18.10;99.90;;;;;;5011428;28;20050;-83
2022/07/01 00:56:19;;;;;;;0.55;0.32;;;18.10;99.90;;;;;;5010341;28;20458;-83
2022/07/01 00:58:46;;;;;;;0.30;0.30;;;18.00;99.90;;;;;;5007985;28;20053;-83
2022/07/01 01:01:13;;;;;;;1.40;0.40;;;17.90;99.90;;;;;;5005509;28;20444;-82
2022/07/01 01:03:39;;;;;;;0.32;0.30;;;17.90;99.90;;;;;;5011349;28;20092;-83
2022/07/01 01:06:06;;;;;;;0.70;0.22;;;17.90;99.90;;;;;;5012052;28;20484;-84
2022/07/01 01:08:34;;;;;;;1.58;0.82;;;17.80;99.90;;;;;;5013170;28;20128;-83
2022/07/01 01:11:01;;;;;;;0.50;0.50;;;17.80;99.90;;;;;;5010165;28;20053;-83
2022/07/01 01:13:27;;;;;;;0.40;0.40;;;17.80;99.90;;;;;;5010144;28;20129;-83
2022/07/01 01:15:54;;;;;;;0.50;0.30;;;17.70;99.90;;;;;;5012664;28;20055;-83
2022/07/01 01:18:21;;;;;;;0.95;0.40;;;17.70;99.90;;;;;;5012304;28;20129;-82
2022/07/01 01:20:47;;;;;;;1.65;0.50;;;17.80;99.90;;;;;;5013514;28;20519;-83
2022/07/01 01:23:14;;;;;;;3.47;0.50;;;17.70;99.90;;;;;;5012187;28;20054;-83
2022/07/01 01:25:41;;;;;;;1.55;0.47;;;17.80;99.90;;;;;;5013633;28;20056;-82
2022/07/01 01:28:08;;;;;;;0.80;0.30;;;17.80;99.90;;;;;;5012625;28;20133;-81
2022/07/01 01:30:35;;;;;;;0.93;0.63;;;17.80;99.90;;;;;;5013475;28;20132;-83
2022/07/01 01:33:02;;;;;;;0.75;0.52;;;17.70;99.90;;;;;;5014262;28;20057;-83
2022/07/01 01:35:31;;;;;;;0.40;0.30;;;17.60;99.90;;;;;;5012169;28;20093;-82
2022/07/01 01:37:58;;;;;;;0.45;0.30;;;17.60;99.90;;;;;;5009065;28;20050;-82
2022/07/01 01:40:25;;;;;;;1.45;0.35;;;17.50;99.90;;;;;;5013822;28;20053;-82
2022/07/01 01:42:52;;;;;;;0.40;0.40;;;17.50;99.90;;;;;;5012170;28;20050;-82
2022/07/01 01:45:19;;;;;;;1.20;0.60;;;17.50;99.90;;;;;;5011846;28;20053;-83
2022/07/01 01:47:45;;;;;;;0.32;0.32;;;17.60;99.90;;;;;;5013461;28;20058;-83
2022/07/01 01:50:14;;;;;;;1.95;0.50;;;17.50;99.90;;;;;;5006785;28;20056;-83
2022/07/01 01:52:43;;;;;;;1.83;0.50;;;17.50;99.90;;;;;;5014182;28;20100;-82
2022/07/01 01:55:10;;;;;;;4.93;0.40;;;17.60;99.90;;;;;;5013230;28;20057;-83
2022/07/01 01:57:37;;;;;;;0.50;0.45;;;17.70;99.90;;;;;;5011159;28;20049;-83
2022/07/01 02:00:08;;;;;;;0.50;0.50;;;17.60;99.90;;;;;;5014792;28;20069;-83
2022/07/01 02:02:36;;;;;;;2.55;0.40;;;17.70;99.90;;;;;;5013744;28;20046;-83
2022/07/01 02:05:10;;;;;;;0.25;0.25;;;17.60;99.90;;;;;;5012320;28;20053;-83
2022/07/01 02:07:38;;;;;;;0.80;0.40;;;17.50;99.90;;;;;;5004561;28;20059;-83
2022/07/01 02:10:05;;;;;;;3.97;0.40;;;17.50;99.90;;;;;;5011487;28;20054;-83
2022/07/01 02:12:32;;;;;;;0.93;0.43;;;17.40;99.90;;;;;;5012915;28;20054;-82
2022/07/01 02:14:58;;;;;;;3.38;0.38;;;17.40;99.90;;;;;;5010374;28;20073;-82
2022/07/01 02:17:26;;;;;;;2.97;0.40;;;17.30;99.90;;;;;;5010652;28;20049;-82
2022/07/01 02:19:53;;;;;;;2.15;0.38;;;17.40;99.90;;;;;;5005038;28;20047;-84
2022/07/01 02:22:19;;;;;;;3.13;0.50;;;17.40;99.90;;;;;;5008762;28;20081;-83
2022/07/01 02:24:46;;;;;;;2.28;0.30;;;17.50;99.90;;;;;;5009538;28;20134;-83
2022/07/01 02:27:13;;;;;;;2.40;0.47;;;17.40;99.90;;;;;;5007897;28;20046;-83
2022/07/01 02:29:41;;;;;;;1.73;0.30;;;17.50;99.90;;;;;;5010843;28;20050;-83
2022/07/01 02:32:08;;;;;;;3.30;0.40;;;17.50;99.90;;;;;;5012912;28;20049;-83
2022/07/01 02:34:35;;;;;;;1.00;0.40;;;17.50;99.90;;;;;;5008780;28;20690;-83
2022/07/01 02:37:03;;;;;;;0.98;0.40;;;17.50;99.90;;;;;;5012150;28;20128;-82
2022/07/01 02:39:29;;;;;;;2.55;0.40;;;17.40;99.90;;;;;;5014220;28;20114;-83
2022/07/01 02:44:41;;;;;;;0.60;0.50;;;17.40;99.90;;;;;;5011598;28;20050;-83
2022/07/01 02:47:08;;;;;;;2.38;0.25;;;17.40;99.90;;;;;;5012949;28;20057;-83
2022/07/01 02:49:34;;;;;;;2.58;0.35;;;17.30;99.90;;;;;;5012006;28;20051;-83
2022/07/01 02:52:01;;;;;;;1.42;0.60;;;17.20;99.90;;;;;;5012415;28;20060;-83
2022/07/01 02:54:29;;;;;;;0.70;0.40;;;17.30;99.90;;;;;;5014016;28;20042;-83
2022/07/01 02:56:55;;;;;;;2.13;0.47;;;17.30;99.90;;;;;;5014819;28;20043;-82
2022/07/01 02:59:22;;;;;;;1.33;0.38;;;17.40;99.90;;;;;;5015388;28;20046;-82
2022/07/01 03:01:49;;;;;;;3.50;0.47;;;17.40;99.90;;;;;;5012425;28;20078;-83
2022/07/01 03:04:15;;;;;;;1.73;0.47;;;17.40;99.90;;;;;;5014648;28;20050;-83
2022/07/01 03:06:42;;;;;;;0.45;0.38;;;17.40;99.90;;;;;;5013965;28;20393;-83
2022/07/01 03:09:09;;;;;;;0.32;0.32;;;17.40;99.90;;;;;;5014110;28;20077;-83
2022/07/01 03:11:36;;;;;;;1.95;0.30;;;17.40;99.90;;;;;;5013079;28;20042;-82
2022/07/01 03:14:02;;;;;;;0.45;0.30;;;17.30;99.90;;;;;;5011993;28;20085;-82
2022/07/01 03:16:29;;;;;;;2.22;0.80;;;17.30;99.90;;;;;;5013273;28;20073;-84
2022/07/01 03:18:57;;;;;;;0.68;0.55;;;17.30;99.90;;;;;;5015152;28;20053;-82
2022/07/01 03:21:24;;;;;;;2.22;0.65;;;17.40;99.90;;;;;;5014388;28;20054;-83
2022/07/01 03:23:50;;;;;;;1.77;0.30;;;17.40;99.90;;;;;;5016447;28;20046;-83
2022/07/01 03:26:17;;;;;;;1.10;0.30;;;17.30;99.90;;;;;;5012275;28;20085;-82
2022/07/01 03:28:43;;;;;;;1.77;0.38;;;17.30;99.90;;;;;;5012210;28;20213;-82
2022/07/01 03:31:10;;;;;;;2.10;0.40;;;17.30;99.90;;;;;;5018806;28;20059;-83
2022/07/01 03:33:37;;;;;;;0.70;0.30;;;17.30;99.90;;;;;;5018483;28;20042;-83
2022/07/01 03:36:04;;;;;;;1.48;0.22;;;17.30;99.90;;;;;;5016639;28;20050;-83
2022/07/01 03:38:30;;;;;;;0.50;0.28;;;17.30;99.90;;;;;;5005268;28;20050;-83
2022/07/01 03:40:57;;;;;;;0.43;0.40;;;17.30;99.90;;;;;;5013358;28;20500;-83
2022/07/01 03:43:24;;;;;;;1.95;0.55;;;17.30;99.90;;;;;;5012026;28;20082;-83
2022/07/01 03:45:51;;;;;;;0.88;0.40;;;17.20;99.90;;;;;;5011655;28;20093;-82
2022/07/01 03:48:17;;;;;;;0.85;0.32;;;17.20;99.90;;;;;;5013393;28;20046;-83
2022/07/01 03:50:44;;;;;;;0.95;0.22;;;17.20;99.90;;;;;;5011387;28;20058;-83
2022/07/01 03:55:56;;;;;;;0.52;0.20;;;17.10;99.90;;;;;;5005941;28;20047;-83
2022/07/01 03:58:23;;;;;;;1.58;0.63;;;17.10;99.90;;;;;;5010852;28;20114;-82
2022/07/01 04:00:49;;;;;;;1.17;0.20;;;17.10;99.90;;;;;;5010057;28;20120;-83
2022/07/01 04:03:16;;;;;;;3.83;0.32;;;17.10;99.90;;;;;;5008904;28;20051;-83
2022/07/01 04:05:43;;;;;;;0.80;0.30;;;17.00;99.90;;;;;;5012729;28;20108;-82
2022/07/01 04:08:11;;;;;;;1.60;0.30;;;17.10;99.90;;;;;;5004959;28;20050;-83
2022/07/01 04:10:39;;;;;;;1.20;0.57;;;17.00;99.90;;;;;;5011417;28;20116;-83
2022/07/01 04:13:06;;;;;;;0.65;0.30;;;16.90;99.90;;;;;;5011122;28;20051;-83
2022/07/01 04:15:53;;;;;;;0.30;0.30;;;16.80;99.90;;;;;;5008576;28;20046;-82
2022/07/01 04:18:20;;;;;;;1.33;0.30;;;16.80;99.90;;;;;;5010452;28;20058;-83
2022/07/01 04:22:32;;;;;;;0.73;0.40;;;16.80;99.90;;;;;;5003318;28;20468;-84
2022/07/01 04:23:33;;;;;;;1.98;0.95;;;16.80;99.90;;;;;;5002565;28;20068;-85
2022/07/01 04:26:01;;;;;;;0.93;0.70;;;16.90;99.90;;;;;;5000004;28;20427;-84
2022/07/01 04:28:47;;;;;;;2.50;0.50;;;16.90;99.90;;;;;;5001049;28;20133;-84
2022/07/01 04:31:14;;;;;;;1.15;0.60;;;17.00;99.90;;;;;;5003047;28;20137;-83
2022/07/01 04:33:41;;;;;;;3.25;0.73;;;17.00;99.90;;;;;;5001627;28;20206;-84
2022/07/01 04:36:08;;;;;;;4.05;1.92;;;17.00;99.90;;;;;;5001450;28;20042;-84
2022/07/01 04:38:34;;;;;;;3.58;0.70;;;17.10;99.90;;;;;;5002939;28;20129;-83
2022/07/01 04:43:46;;;;;;;1.05;0.30;;;17.10;99.90;;;;;;5006066;28;20081;-84
2022/07/01 04:46:13;;;;;;;1.73;0.30;;;17.10;99.90;;;;;;5006631;28;20134;-84
2022/07/01 04:48:40;;;;;;;0.28;0.20;;;17.10;99.90;;;;;;5001411;28;20137;-84
2022/07/01 04:51:07;;;;;;;0.50;0.20;;;17.10;99.90;;;;;;5005892;28;20082;-85
2022/07/01 04:53:34;;;;;;;0.30;0.22;;;16.90;99.90;;;;;;5005105;28;20504;-84
2022/07/01 04:56:01;;;;;;;3.65;0.20;;;16.60;99.90;;;;;;5004924;28;20082;-84
2022/07/01 04:58:27;;;;;;;0.90;0.20;;;16.70;99.90;;;;;;5007570;28;20129;-84
2022/07/01 05:00:54;;;;;;;2.60;0.52;;;16.80;99.90;;;;;;5005335;28;20073;-85
2022/07/01 05:03:21;;;;;;;1.02;0.30;;;16.80;99.90;;;;;;5006079;28;20060;-85
2022/07/01 05:05:48;;;;;;;0.90;0.40;;;16.80;99.90;;;;;;4998674;28;20046;-85
2022/07/01 05:08:14;;;;;;;1.88;0.30;;;16.90;99.90;;;;;;5006917;28;20093;-84
2022/07/01 05:10:42;;;;;;;0.63;0.30;;;16.80;99.90;;;;;;5000380;28;20045;-83
2022/07/01 05:13:09;;;;;;;0.35;0.20;;;16.80;99.90;;;;;;5018621;28;20408;-83
2022/07/01 05:15:36;;;;;;;0.93;0.20;;;16.70;99.90;;;;;;5026265;28;20061;-83
2022/07/01 05:23:36;;;;;;;0.65;0.50;;;16.70;99.90;;;;;;5021500;28;20057;-82
2022/07/01 05:26:03;;;;;;;0.25;0.20;;;16.80;99.90;;;;;;5026008;28;20054;-82
2022/07/01 05:28:30;;;;;;;1.95;0.22;;;16.80;99.90;;;;;;5023875;28;20089;-82
2022/07/01 05:30:57;;;;;;;1.98;0.40;;;16.90;99.90;;;;;;5015456;28;20066;-83
2022/07/01 05:33:26;;;;;;;4.07;0.70;;;16.90;99.90;;;;;;5027790;28;20050;-83
2022/07/01 05:35:53;;;;;;;1.85;0.50;;;16.90;99.90;;;;;;5021579;28;20057;-85
2022/07/01 05:38:21;;;;;;;1.02;0.28;;;17.00;99.90;;;;;;5017997;28;20070;-83
2022/07/01 05:40:48;;;;;;;0.43;0.10;;;17.10;99.90;;;;;;5018497;28;20423;-85
2022/07/01 05:43:14;;;;;;;1.30;0.40;;;17.00;99.90;;;;;;5022171;28;20128;-84
2022/07/01 05:45:41;;;;;;;0.63;0.10;;;17.10;99.90;;;;;;5026360;28;20140;-87
2022/07/01 05:48:08;;;;;;;0.32;0.20;;;17.10;99.90;;;;;;5020262;28;20050;-87
2022/07/01 05:50:35;;;;;;;0.10;0.10;;;17.10;99.90;;;;;;5020640;28;20104;-90
2022/07/01 05:53:02;;;;;;;2.80;0.28;;;17.10;99.90;;;;;;5016672;28;20085;-87
2022/07/01 05:55:28;;;;;;;2.08;0.60;;;17.10;99.90;;;;;;5013279;28;20046;-87
2022/07/01 05:57:55;;;;;;;0.10;0.10;;;17.00;99.90;;;;;;5000043;28;20042;-85
2022/07/01 06:00:22;;;;;;;0.30;0.30;;;17.00;99.90;;;;;;5001714;28;20049;-87
2022/07/01 06:02:49;;;;;;;0.73;0.35;;;17.00;99.90;;;;;;5013699;28;20041;-87
2022/07/01 06:05:16;;;;;;;0.25;0.13;;;17.00;99.90;;;;;;5031561;28;20095;-88
2022/07/01 06:07:43;;;;;;;0.40;0.40;;;16.90;99.90;;;;;;5021776;28;20508;-87
2022/07/01 06:10:10;;;;;;;0.40;0.20;;;16.90;99.90;;;;;;5015348;28;20443;-88
2022/07/01 06:12:38;;;;;;;0.45;0.22;;;16.90;99.90;;;;;;5028008;28;20050;-88
2022/07/01 06:15:11;;;;;;;0.52;0.50;;;16.80;99.90;;;;;;5025011;28;20056;-88
2022/07/01 06:17:39;;;;;;;1.23;0.20;;;16.80;99.90;;;;;;5030435;28;20081;-88
2022/07/01 06:20:08;;;;;;;0.30;0.20;;;16.90;99.90;;;;;;5025009;28;20140;-88
2022/07/01 06:22:35;;;;;;;2.17;0.40;;;16.90;99.90;;;;;;5026481;28;20133;-88
2022/07/01 06:25:03;;;;;;;0.65;0.30;;;16.90;99.90;;;;;;5026553;28;20459;-85
2022/07/01 06:27:30;;;;;;;0.20;0.20;;;16.90;99.90;;;;;;5025089;28;20081;-88
2022/07/01 06:29:56;;;;;;;1.27;0.20;;;17.00;99.90;;;;;;5028399;28;20053;-88
2022/07/01 06:32:23;;;;;;;2.05;0.30;;;17.10;99.90;;;;;;5024986;28;20084;-88
2022/07/01 06:34:51;;;;;;;0.75;0.32;;;17.10;99.90;;;;;;5026045;28;20104;-88
2022/07/01 06:37:20;;;;;;;2.72;0.28;;;17.10;99.90;;;;;;5030664;28;20236;-88
2022/07/01 06:39:47;;;;;;;0.20;0.20;;;17.10;99.90;;;;;;5020907;28;20052;-88
2022/07/01 06:42:14;;;;;;;0.45;0.30;;;17.00;99.90;;;;;;5024283;28;20077;-88
2022/07/01 06:44:41;;;;;;;0.30;0.30;;;17.00;99.90;;;;;;5021932;28;20108;-88
2022/07/01 06:47:08;;;;;;;0.73;0.20;;;17.10;99.90;;;;;;5024465;28;20057;-88
2022/07/01 06:49:35;;;;;;;2.05;0.20;;;17.10;99.90;;;;;;5020420;28;20073;-88
2022/07/01 06:52:02;;;;;;;0.50;0.30;;;17.10;99.90;;;;;;5025358;28;20097;-88
2022/07/01 06:54:29;;;;;;;0.40;0.40;;;17.20;99.90;;;;;;5025368;28;20059;-89
2022/07/01 06:56:55;;;;;;;0.30;0.30;;;17.30;99.90;;;;;;5022566;28;20052;-88
2022/07/01 06:59:22;;;;;;;0.20;0.20;;;17.40;99.90;;;;;;5023095;28;20133;-88
2022/07/01 07:01:49;;;;;;;0.30;0.20;;;17.40;99.90;;;;;;5024062;28;20539;-88
2022/07/01 07:04:16;;;;;;;0.20;0.20;;;17.40;99.90;;;;;;5023891;28;20458;-88
2022/07/01 07:06:47;;;;;;;0.52;0.30;;;17.50;99.90;;;;;;5022047;28;20103;-88
2022/07/01 07:09:13;;;;;;;0.68;0.30;;;17.60;99.90;;;;;;5024591;28;20057;-88
2022/07/01 07:11:40;;;;;;;3.15;0.40;;;17.60;99.90;;;;;;5024630;28;20100;-88
2022/07/01 07:14:07;;;;;;;0.80;0.20;;;17.70;99.90;;;;;;5024711;28;20500;-89
2022/07/01 07:16:34;;;;;;;0.50;0.45;;;17.60;99.90;;;;;;5020789;28;20083;-88
2022/07/01 07:19:00;;;;;;;0.55;0.38;;;17.60;99.90;;;;;;5023961;28;20495;-88
2022/07/01 07:21:27;;;;;;;0.30;0.30;;;17.60;99.90;;;;;;5023484;28;20136;-88
2022/07/01 07:23:54;;;;;;;1.20;0.30;;;17.70;99.90;;;;;;5027066;28;20053;-88
2022/07/01 07:26:21;;;;;;;0.35;0.28;;;17.70;99.90;;;;;;5021781;28;20052;-88
2022/07/01 07:28:48;;;;;;;0.20;0.20;;;17.70;99.90;;;;;;5017955;28;20200;-88
2022/07/01 07:31:15;;;;;;;0.90;0.30;;;17.80;99.90;;;;;;5029724;28;20436;-88
2022/07/01 07:33:42;;;;;;;0.38;0.28;;;17.80;99.90;;;;;;5033992;28;20140;-88
2022/07/01 07:36:08;;;;;;;0.40;0.30;;;17.80;99.90;;;;;;5025150;28;20426;-87
2022/07/01 07:38:38;;;;;;;0.52;0.20;;;17.90;99.90;;;;;;5019312;28;20045;-89
2022/07/01 07:41:05;;;;;;;0.45;0.20;;;17.90;99.90;;;;;;5002654;28;20237;-88
2022/07/01 07:43:32;;;;;;;0.30;0.30;;;17.90;99.90;;;;;;5025517;28;20462;-88
2022/07/01 07:45:59;;;;;;;2.53;0.40;;;18.10;99.90;;;;;;5019568;28;20488;-88
2022/07/01 07:48:25;;;;;;;0.57;0.30;;;18.10;99.90;;;;;;5020707;28;20423;-88
2022/07/01 07:50:53;;;;;;;0.25;0.25;;;18.20;99.90;;;;;;5028009;28;20346;-88
2022/07/01 07:53:20;;;;;;;1.63;0.50;;;18.30;99.90;;;;;;5017299;28;20053;-88
2022/07/01 07:55:47;;;;;;;3.80;0.50;;;18.40;99.90;;;;;;5021179;28;20054;-89
2022/07/01 07:58:13;;;;;;;0.40;0.40;;;18.50;99.90;;;;;;5025233;28;20050;-87
2022/07/01 08:00:40;;;;;;;0.85;0.30;;;18.70;99.90;;;;;;5017992;28;20073;-88
2022/07/01 08:03:07;;;;;;;0.52;0.35;;;18.80;99.90;;;;;;5021483;28;20050;-87
2022/07/01 08:05:34;;;;;;;0.63;0.22;;;18.90;99.90;;;;;;5024768;28;20054;-88
2022/07/01 08:08:01;;;;;;;2.05;0.30;;;19.00;99.90;;;;;;5021654;28;20080;-89
2022/07/01 08:10:27;;;;;;;0.38;0.20;;;19.20;99.90;;;;;;5016105;28;20141;-89
2022/07/01 08:12:56;;;;;;;1.23;0.30;;;19.30;99.90;;;;;;5022918;28;20466;-88
2022/07/01 08:15:23;;;;;;;0.30;0.20;;;19.40;99.90;;;;;;5023128;28;20081;-88
2022/07/01 08:17:50;;;;;;;1.10;0.20;;;19.50;99.90;;;;;;5018524;28;20127;-89
2022/07/01 08:20:18;;;;;;;1.13;0.30;;;19.50;99.90;;;;;;5021983;28;20564;-88
2022/07/01 08:22:49;;;;;;;0.43;0.20;;;19.60;99.90;;;;;;5020899;28;20064;-88
2022/07/01 08:25:16;;;;;;;0.45;0.30;;;19.60;99.90;;;;;;5019246;28;20104;-89
2022/07/01 08:27:43;;;;;;;2.05;0.40;;;19.60;99.90;;;;;;5023266;28;20096;-88
2022/07/01 08:30:10;;;;;;;0.10;0.10;;;19.60;99.90;;;;;;5022309;28;20045;-88
2022/07/01 08:32:37;;;;;;;1.77;0.20;;;19.60;99.90;;;;;;5019223;28;20464;-89
2022/07/01 08:35:04;;;;;;;1.88;0.35;;;19.60;99.90;;;;;;5023659;28;20148;-89
2022/07/01 08:37:31;;;;;;;0.38;0.20;;;19.70;99.90;;;;;;5019175;28;20566;-87
2022/07/01 08:39:59;;;;;;;0.22;0.20;;;19.80;99.90;;;;;;5022957;28;20120;-88
2022/07/01 08:42:25;;;;;;;1.23;0.20;;;19.80;99.90;;;;;;5019349;28;20132;-88
2022/07/01 08:44:52;;;;;;;1.08;0.30;;;19.80;99.90;;;;;;5026951;28;20111;-88
2022/07/01 08:47:19;;;;;;;0.20;0.20;;;19.80;99.90;;;;;;5020681;28;20057;-88
2022/07/01 08:49:46;;;;;;;0.50;0.30;;;19.70;99.90;;;;;;5021136;28;20133;-88
2022/07/01 08:52:13;;;;;;;1.13;0.30;;;19.60;99.90;;;;;;5020608;28;20478;-89
2022/07/01 08:54:40;;;;;;;1.92;0.30;;;19.60;99.90;;;;;;5020772;28;20052;-89
2022/07/01 08:57:08;;;;;;;1.83;0.10;;;19.60;99.90;;;;;;5024170;28;20426;-88
2022/07/01 08:59:35;;;;;;;0.30;0.30;;;19.60;99.90;;;;;;5027267;28;20569;-88
2022/07/01 09:02:04;;;;;;;0.40;0.20;;;19.50;99.90;;;;;;5015637;28;20049;-88
2022/07/01 09:04:33;;;;;;;0.33;0.20;;;19.60;99.90;;;;;;5020425;28;20084;-88
2022/07/01 09:07:06;;;;;;;0.30;0.10;;;19.60;99.90;;;;;;5020065;28;20166;-90
2022/07/01 09:09:38;;;;;;;1.95;0.30;;;19.70;99.90;;;;;;5026180;28;20085;-89
2022/07/01 09:12:06;;;;;;;1.20;0.30;;;19.80;99.90;;;;;;5018851;28;20057;-88
2022/07/01 09:14:34;;;;;;;2.35;0.22;;;20.00;99.90;;;;;;5021613;28;20085;-88
2022/07/01 09:17:04;;;;;;;0.28;0.28;;;20.20;99.90;;;;;;5031002;28;20050;-88
2022/07/01 09:19:36;;;;;;;0.20;0.20;;;20.40;99.90;;;;;;5016072;28;20133;-88
2022/07/01 09:22:10;;;;;;;0.40;0.17;;;20.60;99.90;;;;;;5020428;28;20050;-89
2022/07/01 09:24:44;;;;;;;1.13;0.10;;;20.80;99.90;;;;;;5026366;28;20104;-88
2022/07/01 09:27:16;;;;;;;0.47;0.30;;;20.90;99.90;;;;;;5025758;28;20450;-89
2022/07/01 09:29:44;;;;;;;0.20;0.20;;;21.10;99.90;;;;;;5029802;28;20406;-89
2022/07/01 09:32:13;;;;;;;0.35;0.30;;;21.30;99.90;;;;;;5019873;28;20491;-89
2022/07/01 09:34:43;;;;;;;0.45;0.15;;;21.40;99.90;;;;;;5023531;28;20073;-88
2022/07/01 09:37:14;;;;;;;0.47;0.25;;;21.50;99.90;;;;;;5027347;28;20084;-89
2022/07/01 09:39:42;;;;;;;0.35;0.20;;;21.60;99.90;;;;;;5026982;28;20089;-88
2022/07/01 09:42:10;;;;;;;0.43;0.20;;;21.60;99.90;;;;;;5021259;28;20575;-89
2022/07/01 09:44:54;;;;;;;1.60;0.30;;;21.60;99.90;;;;;;5026084;28;20081;-89
2022/07/01 09:47:29;;;;;;;0.50;0.30;;;21.40;99.90;;;;;;5020722;28;20062;-89
2022/07/01 09:49:56;;;;;;;0.65;0.47;;;21.40;99.90;;;;;;5022628;28;20133;-88
2022/07/01 09:52:24;;;;;;;4.43;0.60;;;21.30;99.90;;;;;;5023526;28;20104;-88
2022/07/01 09:54:51;;;;;;;0.30;0.30;;;21.20;99.90;;;;;;5023242;28;20053;-89
2022/07/01 09:57:20;;;;;;;0.75;0.30;;;21.10;99.90;;;;;;5031336;28;20596;-89
2022/07/01 09:59:48;;;;;;;0.13;0.13;;;21.10;99.90;;;;;;5023726;28;20041;-89
2022/07/01 10:02:17;;;;;;;3.72;0.30;;;21.10;99.90;;;;;;5019328;28;20041;-90
2022/07/01 10:04:59;;;;;;;0.70;0.30;;;21.20;99.90;;;;;;5022731;28;20400;-89
2022/07/01 10:07:48;;;;;;;0.32;0.30;;;21.20;99.90;;;;;;5025231;28;20667;-89
2022/07/01 10:10:36;;;;;;;0.43;0.38;;;21.30;99.90;;;;;;5026545;28;20084;-89
2022/07/01 10:13:04;;;;;;;0.90;0.50;;;21.40;99.90;;;;;;5022375;28;20128;-89
2022/07/01 10:15:32;;;;;;;0.22;0.20;;;21.50;99.90;;;;;;5016086;28;20081;-89
2022/07/01 10:17:58;;;;;;;0.70;0.30;;;21.60;99.90;;;;;;5024578;28;20484;-89
2022/07/01 10:20:28;;;;;;;1.92;0.30;;;21.70;99.90;;;;;;5027416;28;20053;-89
2022/07/01 10:23:07;;;;;;;4.13;0.47;;;21.80;99.90;;;;;;5030034;28;20454;-88
2022/07/01 10:25:41;;;;;;;0.52;0.40;;;21.80;99.90;;;;;;5033982;28;20053;-88
2022/07/01 10:28:15;;;;;;;0.40;0.20;;;21.80;99.90;;;;;;5033795;28;20132;-86
2022/07/01 10:31:11;;;;;;;0.73;0.32;;;21.80;99.90;;;;;;5011126;28;20062;-89
2022/07/01 10:33:43;;;;;;;0.65;0.20;;;21.70;99.90;;;;;;5000542;28;20512;-88
2022/07/01 10:36:22;;;;;;;0.85;0.35;;;21.70;99.90;;;;;;5018219;28;20076;-89
2022/07/01 10:41:30;;;;;;;0.25;0.20;;;21.60;99.90;;;;;;5026953;28;20132;-88
2022/07/01 10:43:58;;;;;;;0.35;0.20;;;21.50;99.90;;;;;;5027365;28;20081;-89
2022/07/01 10:46:50;;;;;;;0.57;0.30;;;21.40;99.90;;;;;;5043572;28;20057;-89
2022/07/01 10:49:20;;;;;;;0.60;0.22;;;21.40;99.90;;;;;;5037169;28;20050;-88
2022/07/01 10:51:52;;;;;;;2.47;0.20;;;21.30;99.90;;;;;;5024870;28;20076;-89
2022/07/01 10:54:38;;;;;;;0.45;0.20;;;21.30;99.90;;;;;;5042269;28;20061;-88
2022/07/01 10:57:20;;;;;;;1.38;0.22;;;21.40;99.90;;;;;;5020008;28;20046;-89
2022/07/01 10:59:56;;;;;;;2.17;0.30;;;21.50;99.90;;;;;;5017653;28;20042;-88
2022/07/01 11:02:26;;;;;;;0.82;0.32;;;21.60;99.90;;;;;;5017450;28;20084;-89
2022/07/01 11:04:56;;;;;;;0.97;0.50;;;21.70;99.90;;;;;;5016168;28;20050;-88
2022/07/01 11:07:28;;;;;;;0.85;0.30;;;21.80;99.90;;;;;;5033974;28;20045;-89
2022/07/01 11:09:56;;;;;;;1.55;0.40;;;21.80;99.90;;;;;;5020948;28;20107;-89
2022/07/01 11:12:23;;;;;;;1.35;0.47;;;21.80;99.90;;;;;;5034521;28;20107;-90
2022/07/01 11:14:51;;;;;;;1.27;0.65;;;21.90;99.90;;;;;;4994159;28;20054;-89
2022/07/01 11:17:20;;;;;;;1.17;0.30;;;21.80;99.90;;;;;;5006094;28;20042;-87
2022/07/01 11:19:52;;;;;;;0.35;0.22;;;21.80;99.90;;;;;;5016028;28;20498;-87
2022/07/01 11:22:21;;;;;;;0.75;0.20;;;21.70;99.90;;;;;;5012324;28;20051;-87
2022/07/01 11:24:59;;;;;;;1.85;0.32;;;21.70;99.90;;;;;;5018609;28;20046;-84
2022/07/01 11:27:27;;;;;;;0.80;0.40;;;21.60;99.90;;;;;;5020586;28;20092;-84
2022/07/01 11:29:57;;;;;;;2.08;0.30;;;21.60;99.90;;;;;;5017892;28;20092;-84
2022/07/01 11:32:29;;;;;;;0.47;0.17;;;21.60;99.90;;;;;;5038825;28;20076;-85
2022/07/01 11:34:59;;;;;;;0.15;0.15;;;21.70;99.90;;;;;;5038475;28;20076;-84
2022/07/01 11:40:15;;;;;;;0.40;0.40;;;21.80;99.90;;;;;;5020265;28;20482;-84
2022/07/01 11:42:42;;;;;;;0.57;0.30;;;21.80;99.90;;;;;;5026574;28;20108;-85
2022/07/01 11:45:26;;;;;;;0.38;0.20;;;21.80;99.90;;;;;;5013335;28;20081;-84
2022/07/01 11:47:53;;;;;;;0.20;0.20;;;21.70;99.90;;;;;;5011787;28;20141;-84
2022/07/01 11:50:21;;;;;;;0.20;0.20;;;21.60;99.90;;;;;;5009229;28;20475;-84
2022/07/01 11:52:48;;;;;;;0.22;0.20;;;21.60;99.90;;;;;;5016056;28;20088;-84
2022/07/01 11:55:18;;;;;;;1.63;0.40;;;21.50;99.90;;;;;;5019631;28;20045;-84
2022/07/01 11:58:04;;;;;;;1.50;0.30;;;21.40;99.90;;;;;;5024710;28;20057;-84
2022/07/01 12:00:34;;;;;;;0.73;0.30;;;21.40;99.90;;;;;;5012117;28;20145;-84
2022/07/01 12:03:01;;;;;;;;;;;21.40;99.90;;;;;;5013082;28;20072;-84
2022/07/01 12:05:28;;;;;;;0.20;0.20;;;21.50;99.90;;;;;;5020721;28;19925;-84
2022/07/01 12:08:01;;;;;;;1.13;0.20;;;21.40;99.90;;;;;;5015431;28;20054;-84
2022/07/01 12:10:28;;;;;;;1.65;0.30;;;21.50;99.90;;;;;;5020900;28;20049;-84
2022/07/01 12:12:55;;;;;;;1.38;0.30;;;21.60;99.90;;;;;;5016041;28;20084;-84
2022/07/01 12:15:23;;;;;;;1.60;0.55;;;21.70;99.90;;;;;;5014519;28;20057;-84
2022/07/01 12:17:49;;;;;;;0.57;0.28;;;21.70;99.90;;;;;;5014195;28;20161;-85
2022/07/01 12:20:31;;;;;;;1.33;0.40;;;21.70;99.90;;;;;;5011118;28;20038;-84
2022/07/01 12:23:14;;;;;;;0.57;0.35;;;21.70;99.90;;;;;;5026939;28;20045;-83
2022/07/01 12:25:46;;;;;;;1.35;0.35;;;21.80;99.90;;;;;;5022205;28;20049;-85
2022/07/01 12:28:29;;;;;;;1.88;1.05;;;21.80;99.90;;;;;;5024012;28;20081;-84
2022/07/01 12:31:06;;;;;;;1.90;0.47;;;21.80;99.90;;;;;;5021836;28;20049;-85
2022/07/01 12:33:38;;;;;;;0.10;0.10;;;21.80;99.90;;;;;;5001353;28;20054;-84
2022/07/01 12:36:06;;;;;;;0.20;0.20;;;21.90;99.90;;;;;;5020590;28;20132;-85
2022/07/01 12:38:33;;;;;;;0.55;0.35;;;21.90;99.90;;;;;;5022026;28;20522;-84
2022/07/01 12:41:01;;;;;;;0.60;0.25;;;21.90;99.90;;;;;;5022387;28;20136;-85
2022/07/01 12:43:31;;;;;;;0.88;0.38;;;21.90;99.90;;;;;;5019715;28;20073;-84
2022/07/01 12:45:59;;;;;;;0.95;0.30;;;21.80;99.90;;;;;;5021392;28;20057;-84
2022/07/01 12:48:26;;;;;;;0.68;0.30;;;21.80;99.90;;;;;;5020354;28;20145;-84
2022/07/01 12:50:57;;;;;;;1.92;0.20;;;21.80;99.90;;;;;;5019677;28;20132;-84
2022/07/01 12:53:27;;;;;;;1.85;0.20;;;21.80;99.90;;;;;;5021588;28;20108;-84
2022/07/01 12:55:56;;;;;;;0.65;0.30;;;21.70;99.90;;;;;;5021075;28;20084;-84
2022/07/01 12:58:26;;;;;;;0.95;0.30;;;21.70;99.90;;;;;;5023613;28;20081;-84
2022/07/01 13:00:55;;;;;;;1.25;0.32;;;21.70;99.90;;;;;;5020906;28;20451;-84
2022/07/01 13:03:23;;;;;;;1.35;0.28;;;21.60;99.90;;;;;;5025883;28;20053;-84
2022/07/01 13:05:52;;;;;;;0.45;0.25;;;21.60;99.90;;;;;;5023641;28;20132;-85
2022/07/01 13:08:19;;;;;;;2.50;0.55;;;21.70;99.90;;;;;;5027060;28;20084;-84
2022/07/01 13:10:48;;;;;;;1.25;0.22;;;21.70;99.90;;;;;;5025334;28;20482;-84
2022/07/01 13:13:18;;;;;;;0.47;0.20;;;21.80;99.90;;;;;;5025960;28;20054;-84
2022/07/01 13:15:45;;;;;;;0.70;0.35;;;21.80;99.90;;;;;;5027255;28;20137;-85